createdAt,value
2022-10-22T00:00:24.650Z,97133.06
2022-10-22T00:03:26.202Z,97136.09
2022-10-22T00:06:27.838Z,97135.97
2022-10-22T00:09:29.366Z,97138.53
2022-10-22T00:12:30.964Z,97137.75
2022-10-22T00:15:32.585Z,97134.41
2022-10-22T00:18:34.141Z,97146.31
2022-10-22T00:21:36.011Z,97142.63
2022-10-22T00:24:38.347Z,97146.53
2022-10-22T00:27:40.109Z,97145.00
2022-10-22T00:30:42.947Z,97146.31
2022-10-22T00:33:46.058Z,97152.78
2022-10-22T00:36:51.274Z,97151.69
2022-10-22T00:39:52.821Z,97152.03
2022-10-22T00:42:54.502Z,97159.81
2022-10-22T00:45:56.302Z,97163.25
2022-10-22T00:48:59.642Z,97163.25
2022-10-22T00:52:01.128Z,97173.97
2022-10-22T00:55:02.701Z,97172.84
2022-10-22T00:58:04.205Z,97182.09
2022-10-22T01:01:05.833Z,97173.72
2022-10-22T01:04:07.373Z,97185.53
2022-10-22T01:07:12.089Z,97187.78
2022-10-22T01:10:13.610Z,97182.09
2022-10-22T01:13:22.738Z,97180.19
2022-10-22T01:16:35.657Z,97185.31
2022-10-22T01:19:56.010Z,97182.97
2022-10-22T01:23:00.673Z,97190.22
2022-10-22T01:26:07.160Z,97191.34
2022-10-22T01:29:13.285Z,97189.09
2022-10-22T01:32:15.905Z,97187.66
2022-10-22T01:35:43.754Z,97184.22
2022-10-22T01:38:45.476Z,97185.31
2022-10-22T01:41:47.099Z,97191.47
2022-10-22T01:44:50.184Z,97194.91
2022-10-22T01:47:54.573Z,97198.25
2022-10-22T01:51:11.851Z,97189.78
2022-10-22T01:54:16.199Z,97192.44
2022-10-22T01:57:17.714Z,97187.44
2022-10-22T02:00:19.294Z,97191.66
2022-10-22T02:03:23.724Z,97185.53
2022-10-22T02:06:25.566Z,97191.34
2022-10-22T02:09:27.531Z,97189.78
2022-10-22T02:12:29.162Z,97184.41
2022-10-22T02:15:30.702Z,97196.25
2022-10-22T02:18:35.272Z,97191.66
2022-10-22T02:21:39.009Z,97192.44
2022-10-22T02:24:40.631Z,97197.78
2022-10-22T02:27:43.949Z,97190.56
2022-10-22T02:30:46.954Z,97205.81
2022-10-22T02:33:49.516Z,97205.41
2022-10-22T02:36:50.994Z,97210.75
2022-10-22T02:39:52.871Z,97214.97
2022-10-22T02:42:54.385Z,97207.28
2022-10-22T02:45:55.903Z,97211.88
2022-10-22T02:48:57.380Z,97212.66
2022-10-22T02:51:59.773Z,97214.19
2022-10-22T02:55:01.317Z,97220.66
2022-10-22T02:58:02.843Z,97230.25
2022-10-22T03:01:04.438Z,97229.81
2022-10-22T03:04:06.049Z,97230.59
2022-10-22T03:07:07.569Z,97235.50
2022-10-22T03:10:09.327Z,97238.06
2022-10-22T03:13:10.854Z,97243.41
2022-10-22T03:16:12.337Z,97245.31
2022-10-22T03:19:13.829Z,97244.53
2022-10-22T03:22:20.440Z,97251.31
2022-10-22T03:25:22.841Z,97251.31
2022-10-22T03:28:26.905Z,97254.78
2022-10-22T03:31:28.440Z,97260.22
2022-10-22T03:34:34.997Z,97258.34
2022-10-22T03:37:36.618Z,97278.97
2022-10-22T03:40:38.241Z,97277.75
2022-10-22T03:43:41.013Z,97277.75
2022-10-22T03:46:42.516Z,97272.06
2022-10-22T03:49:44.069Z,97286.56
2022-10-22T03:52:45.587Z,97292.56
2022-10-22T03:55:47.092Z,97291.66
2022-10-22T03:58:48.641Z,97297.72
2022-10-22T04:01:50.157Z,97298.78
2022-10-22T04:04:51.701Z,97300.56
2022-10-22T04:07:53.240Z,97299.56
2022-10-22T04:10:54.772Z,97299.78
2022-10-22T04:13:56.322Z,97308.25
2022-10-22T04:16:57.829Z,97304.69
2022-10-22T04:19:59.350Z,97305.47
2022-10-22T04:23:00.885Z,97310.47
2022-10-22T04:26:03.351Z,97321.50
2022-10-22T04:29:06.354Z,97332.88
2022-10-22T04:32:07.970Z,97322.00
2022-10-22T04:35:09.473Z,97330.53
2022-10-22T04:38:11.132Z,97330.53
2022-10-22T04:41:14.094Z,97334.25
2022-10-22T04:44:17.397Z,97338.22
2022-10-22T04:47:19.940Z,97344.81
2022-10-22T04:50:21.497Z,97355.94
2022-10-22T04:53:23.024Z,97351.56
2022-10-22T04:56:26.022Z,97356.66
2022-10-22T04:59:27.591Z,97348.91
2022-10-22T05:02:29.116Z,97356.59
2022-10-22T05:05:30.662Z,97369.53
2022-10-22T05:08:32.361Z,97361.91
2022-10-22T05:11:35.049Z,97365.09
2022-10-22T05:14:38.534Z,97362.94
2022-10-22T05:17:43.125Z,97345.22
2022-10-22T05:20:44.907Z,97355.47
2022-10-22T05:23:47.236Z,97354.34
2022-10-22T05:26:49.767Z,97346.59
2022-10-22T05:29:51.300Z,97360.88
2022-10-22T05:32:52.966Z,97372.66
2022-10-22T05:35:54.650Z,97375.53
2022-10-22T05:38:57.004Z,97396.91
2022-10-22T05:41:58.586Z,97386.81
2022-10-22T05:45:00.199Z,97380.22
2022-10-22T05:48:01.750Z,97386.69
2022-10-22T05:51:07.356Z,97390.56
2022-10-22T05:54:08.956Z,97384.25
2022-10-22T05:57:10.534Z,97392.34
2022-10-22T06:00:14.257Z,97391.31
2022-10-22T06:03:18.050Z,97403.09
2022-10-22T06:06:20.710Z,97403.44
2022-10-22T06:12:37.817Z,97417.13
2022-10-22T06:15:39.562Z,97425.09
2022-10-22T06:18:41.216Z,97416.41
2022-10-22T06:21:43.065Z,97409.50
2022-10-22T06:24:45.242Z,97422.94
2022-10-22T06:27:51.781Z,97455.19
2022-10-22T06:30:53.336Z,97432.56
2022-10-22T06:33:56.590Z,97466.03
2022-10-22T06:36:58.192Z,97453.09
2022-10-22T06:39:59.747Z,97457.09
2022-10-22T06:43:01.325Z,97455.72
2022-10-22T06:46:03.825Z,97460.00
2022-10-22T06:49:05.868Z,97459.22
2022-10-22T06:52:07.433Z,97486.91
2022-10-22T06:55:09.191Z,97498.13
2022-10-22T06:58:10.853Z,97491.75
2022-10-22T07:01:13.401Z,97506.97
2022-10-22T07:04:15.174Z,97510.91
2022-10-22T07:07:16.744Z,97523.47
2022-10-22T07:10:18.327Z,97494.59
2022-10-22T07:13:19.905Z,97522.56
2022-10-22T07:16:21.660Z,97527.56
2022-10-22T07:19:23.214Z,97581.75
2022-10-22T07:22:24.733Z,97538.88
2022-10-22T07:25:26.244Z,97546.09
2022-10-22T07:28:28.681Z,97568.88
2022-10-22T07:31:30.549Z,97568.25
2022-10-22T07:34:32.090Z,97572.00
2022-10-22T07:37:33.598Z,97568.50
2022-10-22T07:40:35.632Z,97576.50
2022-10-22T07:43:37.218Z,97569.16
2022-10-22T07:46:39.547Z,97586.75
2022-10-22T07:49:41.335Z,97608.13
2022-10-22T07:52:43.602Z,97599.78
2022-10-22T07:55:48.016Z,97600.56
2022-10-22T07:58:49.691Z,97599.78
2022-10-22T08:01:51.266Z,97606.69
2022-10-22T08:04:52.886Z,97592.38
2022-10-22T08:07:54.409Z,97608.66
2022-10-22T08:10:56.027Z,97622.44
2022-10-22T08:13:57.570Z,97620.19
2022-10-22T08:16:59.101Z,97617.00
2022-10-22T08:20:00.617Z,97619.47
2022-10-22T08:23:02.166Z,97620.09
2022-10-22T08:26:03.848Z,97618.53
2022-10-22T08:29:05.524Z,97628.75
2022-10-22T08:32:07.046Z,97632.69
2022-10-22T08:35:08.644Z,97634.06
2022-10-22T08:38:10.525Z,97649.97
2022-10-22T08:41:21.593Z,97638.88
2022-10-22T08:44:40.425Z,97631.16
2022-10-22T08:48:01.467Z,97636.00
2022-10-22T08:51:03.037Z,97636.28
2022-10-22T08:54:13.727Z,97639.94
2022-10-22T08:57:24.590Z,97642.31
2022-10-22T09:00:46.322Z,97640.72
2022-10-22T09:03:47.861Z,97649.50
2022-10-22T09:06:52.157Z,97653.63
2022-10-22T09:09:55.283Z,97646.16
2022-10-22T09:12:56.837Z,97671.19
2022-10-22T09:16:12.043Z,97641.09
2022-10-22T09:19:26.148Z,97658.53
2022-10-22T09:22:36.929Z,97674.47
2022-10-22T09:25:38.716Z,97671.13
2022-10-22T09:28:40.250Z,97660.75
2022-10-22T09:31:41.730Z,97691.22
2022-10-22T09:34:47.448Z,97660.81
2022-10-22T09:37:50.272Z,97667.63
2022-10-22T09:40:56.323Z,97652.59
2022-10-22T09:43:58.470Z,97645.88
2022-10-22T09:47:00.098Z,97645.91
2022-10-22T09:50:07.673Z,97655.06
2022-10-22T09:53:28.431Z,97659.09
2022-10-22T09:56:37.494Z,97638.16
2022-10-22T09:59:41.283Z,97661.25
2022-10-22T10:02:43.016Z,97651.97
2022-10-22T10:05:45.119Z,97657.13
2022-10-22T10:08:47.353Z,97645.84
2022-10-22T10:12:12.262Z,97671.97
2022-10-22T10:15:21.092Z,97670.13
2022-10-22T10:18:32.661Z,97661.97
2022-10-22T10:21:39.934Z,97668.38
2022-10-22T10:24:50.706Z,97673.69
2022-10-22T10:27:55.549Z,97632.75
2022-10-22T10:31:10.670Z,97676.16
2022-10-22T10:34:18.108Z,97673.84
2022-10-22T10:37:27.159Z,97641.22
2022-10-22T10:40:28.738Z,97689.16
2022-10-22T10:43:42.653Z,97695.84
2022-10-22T10:46:44.619Z,97635.66
2022-10-22T10:53:10.809Z,97703.41
2022-10-22T10:56:36.802Z,97724.06
2022-10-22T10:59:43.681Z,97765.97
2022-10-22T11:02:54.474Z,97728.63
2022-10-22T11:05:59.614Z,97731.53
2022-10-22T11:09:02.792Z,97728.63
2022-10-22T11:12:05.773Z,97726.56
2022-10-22T11:15:09.520Z,97748.56
2022-10-22T11:18:37.298Z,97780.38
2022-10-22T11:21:40.462Z,97776.50
2022-10-22T11:24:53.547Z,97784.59
2022-10-22T11:28:05.652Z,97786.47
2022-10-22T11:31:13.419Z,97788.44
2022-10-22T11:34:33.813Z,97789.84
2022-10-22T11:37:39.060Z,97798.34
2022-10-22T11:40:46.419Z,97802.88
2022-10-22T11:43:59.348Z,97799.72
2022-10-22T11:47:09.537Z,97798.44
2022-10-22T11:50:17.120Z,97799.44
2022-10-22T11:53:20.590Z,97835.88
2022-10-22T11:56:23.183Z,97829.34
2022-10-22T11:59:35.214Z,97805.00
2022-10-22T12:02:41.459Z,97819.88
2022-10-22T12:05:48.907Z,97820.81
2022-10-22T12:08:51.385Z,97842.91
2022-10-22T12:11:53.114Z,97835.34
2022-10-22T12:14:55.755Z,97825.59
2022-10-22T12:17:59.598Z,97826.38
2022-10-22T12:21:01.164Z,97803.78
2022-10-22T12:24:02.695Z,97811.19
2022-10-22T12:27:04.869Z,97822.13
2022-10-22T12:30:34.703Z,97827.19
2022-10-22T12:33:36.307Z,97843.75
2022-10-22T12:36:37.848Z,97822.25
2022-10-22T12:39:39.375Z,97847.22
2022-10-22T12:42:46.628Z,97829.06
2022-10-22T12:45:48.732Z,97818.00
2022-10-22T12:48:50.274Z,97833.09
2022-10-22T12:51:51.809Z,97846.69
2022-10-22T12:54:54.887Z,97829.66
2022-10-22T12:57:56.418Z,97851.47
2022-10-22T13:00:59.206Z,97832.50
2022-10-22T13:04:05.885Z,97881.97
2022-10-22T13:07:18.518Z,97838.63
2022-10-22T13:10:26.948Z,97843.22
2022-10-22T13:13:30.081Z,97830.97
2022-10-22T13:16:32.253Z,97839.75
2022-10-22T13:19:38.126Z,97828.28
2022-10-22T13:22:40.351Z,97832.81
2022-10-22T13:25:41.885Z,97841.09
2022-10-22T13:28:46.158Z,97824.28
2022-10-22T13:31:48.600Z,97848.22
2022-10-22T13:34:50.176Z,97839.41
2022-10-22T13:37:51.889Z,97837.66
2022-10-22T13:40:53.633Z,97919.88
2022-10-22T13:43:55.318Z,97812.19
2022-10-22T13:46:57.197Z,97826.47
2022-10-22T13:49:59.436Z,97816.53
2022-10-22T13:53:01.018Z,97823.56
2022-10-22T13:56:02.860Z,97834.50
2022-10-22T13:59:04.482Z,97791.63
2022-10-22T14:02:09.771Z,97809.97
2022-10-22T14:05:11.471Z,97815.19
2022-10-22T14:08:13.544Z,97831.69
2022-10-22T14:11:15.065Z,97829.91
2022-10-22T14:14:17.463Z,97872.44
2022-10-22T14:17:19.240Z,97786.06
2022-10-22T14:20:21.781Z,97843.31
2022-10-22T14:23:24.580Z,97854.16
2022-10-22T14:26:31.466Z,97863.31
2022-10-22T14:29:33.218Z,97853.03
2022-10-22T14:32:35.175Z,97868.78
2022-10-22T14:35:36.868Z,97873.56
2022-10-22T14:38:38.548Z,97874.19
2022-10-22T14:41:40.961Z,97881.06
2022-10-22T14:44:42.923Z,97887.22
2022-10-22T14:47:44.606Z,97905.56
2022-10-22T14:50:46.266Z,97908.91
2022-10-22T14:53:47.957Z,97919.88
2022-10-22T14:56:51.330Z,97929.56
2022-10-22T14:59:54.988Z,97946.59
2022-10-22T15:02:58.792Z,97949.41
2022-10-22T15:06:02.529Z,97953.69
2022-10-22T15:09:05.398Z,97954.91
2022-10-22T15:12:07.282Z,97938.06
2022-10-22T15:15:10.036Z,97944.66
2022-10-22T15:18:11.888Z,97955.72
2022-10-22T15:21:16.584Z,97935.50
2022-10-22T15:24:18.250Z,97931.56
2022-10-22T15:27:20.142Z,97948.78
2022-10-22T15:30:21.692Z,97948.66
2022-10-22T15:33:23.373Z,97945.50
2022-10-22T15:36:24.950Z,97953.38
2022-10-22T15:39:26.605Z,97957.63
2022-10-22T15:42:28.254Z,97962.69
2022-10-22T15:45:29.834Z,97962.97
2022-10-22T15:48:31.453Z,97959.84
2022-10-22T15:51:33.050Z,97958.91
2022-10-22T15:54:34.714Z,97942.03
2022-10-22T15:57:36.794Z,97937.22
2022-10-22T16:00:38.415Z,97947.75
2022-10-22T16:03:40.769Z,97937.03
2022-10-22T16:06:46.869Z,97917.69
2022-10-22T16:09:48.452Z,97941.19
2022-10-22T16:12:51.806Z,97910.97
2022-10-22T16:15:53.559Z,97944.44
2022-10-22T16:18:55.269Z,97940.50
2022-10-22T16:21:57.077Z,97946.34
2022-10-22T16:24:58.621Z,97944.63
2022-10-22T16:28:00.113Z,97943.91
2022-10-22T16:31:06.188Z,97965.34
2022-10-22T16:34:08.332Z,97962.22
2022-10-22T16:37:10.398Z,97967.72
2022-10-22T16:40:12.701Z,97972.16
2022-10-22T16:43:14.258Z,97980.34
2022-10-22T16:46:16.850Z,97984.31
2022-10-22T16:49:18.394Z,97994.09
2022-10-22T16:52:19.960Z,97990.16
2022-10-22T16:55:21.488Z,97992.25
2022-10-22T16:58:23.062Z,97991.59
2022-10-22T17:01:29.301Z,98001.19
2022-10-22T17:04:30.917Z,98005.91
2022-10-22T17:07:32.488Z,98004.19
2022-10-22T17:10:35.440Z,98012.38
2022-10-22T17:13:37.294Z,98026.84
2022-10-22T17:16:38.859Z,98037.38
2022-10-22T17:19:40.455Z,98031.25
2022-10-22T17:22:42.188Z,98049.97
2022-10-22T17:25:44.510Z,98045.72
2022-10-22T17:28:46.245Z,98047.91
2022-10-22T17:31:47.857Z,98055.75
2022-10-22T17:34:49.484Z,98056.69
2022-10-22T17:37:51.579Z,98064.88
2022-10-22T17:40:53.293Z,98061.53
2022-10-22T17:43:55.810Z,98064.19
2022-10-22T17:47:00.263Z,98068.09
2022-10-22T17:50:01.825Z,98064.47
2022-10-22T17:53:03.373Z,98062.84
2022-10-22T17:56:10.047Z,98064.56
2022-10-22T17:59:12.734Z,98067.69
2022-10-22T18:02:14.942Z,98065.97
2022-10-22T18:05:17.108Z,98075.84
2022-10-22T18:08:18.648Z,98067.03
2022-10-22T18:11:21.660Z,98074.72
2022-10-22T18:14:24.070Z,98073.31
2022-10-22T18:17:26.291Z,98074.09
2022-10-22T18:20:27.824Z,98076.72
2022-10-22T18:23:29.422Z,98078.25
2022-10-22T18:26:30.968Z,98077.97
2022-10-22T18:29:32.541Z,98091.97
2022-10-22T18:32:34.171Z,98090.25
2022-10-22T18:35:35.694Z,98096.72
2022-10-22T18:38:38.322Z,98095.25
2022-10-22T18:41:39.884Z,98102.44
2022-10-22T18:44:41.436Z,98109.00
2022-10-22T18:47:43.496Z,98118.34
2022-10-22T18:50:45.337Z,98121.34
2022-10-22T18:53:59.126Z,98121.53
2022-10-22T18:57:07.199Z,98120.47
2022-10-22T19:00:09.133Z,98119.56
2022-10-22T19:03:11.074Z,98115.50
2022-10-22T19:06:16.359Z,98115.38
2022-10-22T19:09:17.986Z,98113.03
2022-10-22T19:12:21.801Z,98107.00
2022-10-22T19:15:23.478Z,98107.97
2022-10-22T19:18:25.061Z,98118.53
2022-10-22T19:21:26.648Z,98109.78
2022-10-22T19:24:28.252Z,98120.19
2022-10-22T19:27:31.674Z,98110.75
2022-10-22T19:30:33.212Z,98116.28
2022-10-22T19:33:38.131Z,98111.13
2022-10-22T19:36:39.999Z,98115.72
2022-10-22T19:39:41.672Z,98115.59
2022-10-22T19:42:46.976Z,98116.38
2022-10-22T19:45:48.613Z,98115.91
2022-10-22T19:48:51.450Z,98116.50
2022-10-22T19:51:53.118Z,98119.38
2022-10-22T19:54:54.653Z,98116.38
2022-10-22T19:57:56.375Z,98109.34
2022-10-22T20:00:58.094Z,98113.84
2022-10-22T20:04:01.374Z,98118.13
2022-10-22T20:07:02.932Z,98129.94
2022-10-22T20:10:04.739Z,98130.38
2022-10-22T20:13:06.328Z,98126.09
2022-10-22T20:16:07.893Z,98133.72
2022-10-22T20:19:11.000Z,98135.31
2022-10-22T20:22:14.966Z,98124.03
2022-10-22T20:25:19.481Z,98130.66
2022-10-22T20:28:21.050Z,98133.13
2022-10-22T20:31:24.026Z,98126.03
2022-10-22T20:34:25.609Z,98128.53
2022-10-22T20:37:27.149Z,98125.72
2022-10-22T20:40:30.502Z,98133.88
2022-10-22T20:43:32.345Z,98128.94
2022-10-22T20:46:34.136Z,98131.75
2022-10-22T20:49:35.939Z,98138.31
2022-10-22T20:52:37.486Z,98133.72
2022-10-22T20:55:38.983Z,98131.13
2022-10-22T20:58:46.196Z,98135.22
2022-10-22T21:01:48.508Z,98123.75
2022-10-22T21:04:49.989Z,98134.72
2022-10-22T21:07:51.471Z,98141.66
2022-10-22T21:10:52.948Z,98145.72
2022-10-22T21:13:54.485Z,98132.38
2022-10-22T21:16:55.997Z,98132.69
2022-10-22T21:19:57.516Z,98139.88
2022-10-22T21:22:59.054Z,98138.50
2022-10-22T21:26:00.605Z,98139.47
2022-10-22T21:29:02.130Z,98131.97
2022-10-22T21:32:03.781Z,98132.94
2022-10-22T21:35:05.472Z,98132.09
2022-10-22T21:38:07.975Z,98136.66
2022-10-22T21:41:10.405Z,98132.44
2022-10-22T21:44:12.081Z,98125.81
2022-10-22T21:47:13.723Z,98125.03
2022-10-22T21:50:15.321Z,98125.19
2022-10-22T21:53:16.987Z,98124.09
2022-10-22T21:56:20.129Z,98127.28
2022-10-22T21:59:21.644Z,98125.38
2022-10-22T22:02:23.940Z,98126.00
2022-10-22T22:05:25.606Z,98128.00
2022-10-22T22:08:27.424Z,98127.22
2022-10-22T22:11:29.158Z,98125.34
2022-10-22T22:14:30.813Z,98123.44
2022-10-22T22:17:32.451Z,98133.66
2022-10-22T22:20:34.005Z,98120.31
2022-10-22T22:23:39.034Z,98116.03
2022-10-22T22:26:40.649Z,98120.91
2022-10-22T22:29:42.194Z,98125.75
2022-10-22T22:32:43.757Z,98128.25
2022-10-22T22:35:45.320Z,98127.44
2022-10-22T22:38:46.900Z,98125.41
2022-10-22T22:41:48.657Z,98127.38
2022-10-22T22:44:50.236Z,98131.44
2022-10-22T22:47:51.896Z,98137.84
2022-10-22T22:50:53.466Z,98143.50
2022-10-22T22:53:55.149Z,98145.88
2022-10-22T22:56:56.733Z,98151.69
2022-10-22T22:59:58.432Z,98160.38
2022-10-22T23:02:59.962Z,98159.47
2022-10-22T23:06:01.543Z,98152.94
2022-10-22T23:09:04.611Z,98154.50
2022-10-22T23:12:06.316Z,98142.38
2022-10-22T23:15:07.970Z,98147.81
2022-10-22T23:18:09.541Z,98142.31
2022-10-22T23:21:15.162Z,98143.09
2022-10-22T23:24:18.251Z,98143.38
2022-10-22T23:27:19.761Z,98147.47
2022-10-22T23:30:21.296Z,98138.75
2022-10-22T23:33:22.828Z,98128.50
2022-10-22T23:36:24.400Z,98130.47
2022-10-22T23:39:26.865Z,98124.47
2022-10-22T23:42:28.479Z,98126.94
2022-10-22T23:45:30.293Z,98121.34
2022-10-22T23:48:31.916Z,98113.22
2022-10-22T23:51:33.546Z,98114.47
2022-10-22T23:54:35.094Z,98120.59
2022-10-22T23:57:36.674Z,98117.44
